KSEE

Gillespie Field Airport

San Diego/El Cajon, California, USA
METAR KSEE 161747Z 00000KT 10SM OVC035 16/12 A3022
Observed Flight Rules
Jan-16 @ 17:47 UTC (36 minutes ago) Visual Flight Rules
Visibility Clouds
10 miles
  • Overcast at 3,500' AGL
Temperatures Readings
Current 16°C / 61°F
Dewpoint 12°C / 54°F
Humidity 77%
Altimeter 30.22" Hg
Pressure 1023.42 hPa
Elevation 117
METAR KSEE 161747Z 00000KT 10SM OVC035 16/12 A3022
Observed Flight Rules
Jan-16 @ 17:47 UTC
(36 minutes ago)
VFR
Clouds
  • Overcast at 3,500' AGL
Temperature Dewpoint
16°C / 61°F 12°C / 54°F
Humidity Altimeter Pressure
77% 30.22" Hg 1023.42 hPa